sensor_id;sensor_type;location;lat;lon;timestamp;P1;durP1;ratioP1;P2;durP2;ratioP2
40907;SDS011;51055;59.436;24.778;2023-06-14T00:01:59;7.00;;;2.80;;
40907;SDS011;51055;59.436;24.778;2023-06-14T00:04:27;6.32;;;2.55;;
40907;SDS011;51055;59.436;24.778;2023-06-14T00:06:55;5.70;;;3.13;;
40907;SDS011;51055;59.436;24.778;2023-06-14T00:09:24;6.65;;;2.70;;
40907;SDS011;51055;59.436;24.778;2023-06-14T00:11:51;7.32;;;2.75;;
40907;SDS011;51055;59.436;24.778;2023-06-14T00:14:19;5.75;;;2.60;;
40907;SDS011;51055;59.436;24.778;2023-06-14T00:16:47;5.70;;;2.80;;
40907;SDS011;51055;59.436;24.778;2023-06-14T00:19:15;7.60;;;2.72;;
40907;SDS011;51055;59.436;24.778;2023-06-14T00:21:43;6.30;;;2.78;;
40907;SDS011;51055;59.436;24.778;2023-06-14T00:24:11;6.82;;;2.67;;
40907;SDS011;51055;59.436;24.778;2023-06-14T00:26:39;5.63;;;2.40;;
40907;SDS011;51055;59.436;24.778;2023-06-14T00:29:07;5.32;;;2.53;;
40907;SDS011;51055;59.436;24.778;2023-06-14T00:31:34;6.30;;;2.97;;
40907;SDS011;51055;59.436;24.778;2023-06-14T00:34:02;5.88;;;2.80;;
40907;SDS011;51055;59.436;24.778;2023-06-14T00:36:30;6.55;;;2.70;;
40907;SDS011;51055;59.436;24.778;2023-06-14T00:38:57;6.15;;;3.35;;
40907;SDS011;51055;59.436;24.778;2023-06-14T00:41:25;5.15;;;2.70;;
40907;SDS011;51055;59.436;24.778;2023-06-14T00:43:54;7.75;;;3.00;;
40907;SDS011;51055;59.436;24.778;2023-06-14T00:46:24;6.53;;;2.90;;
40907;SDS011;51055;59.436;24.778;2023-06-14T00:48:52;6.20;;;2.55;;
40907;SDS011;51055;59.436;24.778;2023-06-14T00:53:48;5.63;;;2.92;;
40907;SDS011;51055;59.436;24.778;2023-06-14T00:56:17;5.22;;;2.80;;
40907;SDS011;51055;59.436;24.778;2023-06-14T00:58:49;5.43;;;2.95;;
40907;SDS011;51055;59.436;24.778;2023-06-14T01:01:18;5.60;;;3.03;;
40907;SDS011;51055;59.436;24.778;2023-06-14T01:03:46;5.85;;;2.67;;
40907;SDS011;51055;59.436;24.778;2023-06-14T01:09:03;5.78;;;3.00;;
40907;SDS011;51055;59.436;24.778;2023-06-14T01:11:53;7.10;;;3.05;;
40907;SDS011;51055;59.436;24.778;2023-06-14T01:14:34;5.50;;;3.08;;
40907;SDS011;51055;59.436;24.778;2023-06-14T01:17:03;6.43;;;2.90;;
40907;SDS011;51055;59.436;24.778;2023-06-14T01:19:32;6.30;;;3.30;;
40907;SDS011;51055;59.436;24.778;2023-06-14T01:22:01;7.38;;;2.83;;
40907;SDS011;51055;59.436;24.778;2023-06-14T01:24:29;6.05;;;3.03;;
40907;SDS011;51055;59.436;24.778;2023-06-14T01:26:59;6.18;;;2.97;;
40907;SDS011;51055;59.436;24.778;2023-06-14T01:29:28;7.75;;;3.05;;
40907;SDS011;51055;59.436;24.778;2023-06-14T01:32:00;6.85;;;3.25;;
40907;SDS011;51055;59.436;24.778;2023-06-14T01:34:28;5.80;;;3.00;;
40907;SDS011;51055;59.436;24.778;2023-06-14T01:36:56;5.25;;;2.83;;
40907;SDS011;51055;59.436;24.778;2023-06-14T01:39:23;10.07;;;3.22;;
40907;SDS011;51055;59.436;24.778;2023-06-14T01:41:51;5.80;;;3.10;;
40907;SDS011;51055;59.436;24.778;2023-06-14T01:44:19;6.97;;;2.65;;
40907;SDS011;51055;59.436;24.778;2023-06-14T01:46:49;5.70;;;2.80;;
40907;SDS011;51055;59.436;24.778;2023-06-14T01:49:16;5.95;;;3.08;;
40907;SDS011;51055;59.436;24.778;2023-06-14T01:51:44;7.40;;;3.10;;
40907;SDS011;51055;59.436;24.778;2023-06-14T01:54:12;5.90;;;3.15;;
40907;SDS011;51055;59.436;24.778;2023-06-14T01:56:40;7.60;;;3.42;;
40907;SDS011;51055;59.436;24.778;2023-06-14T01:59:07;5.70;;;3.05;;
40907;SDS011;51055;59.436;24.778;2023-06-14T02:01:35;7.18;;;3.08;;
40907;SDS011;51055;59.436;24.778;2023-06-14T02:04:04;7.43;;;3.60;;
40907;SDS011;51055;59.436;24.778;2023-06-14T02:06:32;8.70;;;3.25;;
40907;SDS011;51055;59.436;24.778;2023-06-14T02:09:00;6.97;;;3.13;;
40907;SDS011;51055;59.436;24.778;2023-06-14T02:11:28;6.38;;;3.00;;
40907;SDS011;51055;59.436;24.778;2023-06-14T02:13:56;7.45;;;2.95;;
40907;SDS011;51055;59.436;24.778;2023-06-14T02:16:24;7.28;;;2.97;;
40907;SDS011;51055;59.436;24.778;2023-06-14T02:18:52;6.60;;;2.50;;
40907;SDS011;51055;59.436;24.778;2023-06-14T02:21:20;8.67;;;3.33;;
40907;SDS011;51055;59.436;24.778;2023-06-14T02:23:47;8.60;;;3.25;;
40907;SDS011;51055;59.436;24.778;2023-06-14T02:26:15;5.47;;;3.08;;
40907;SDS011;51055;59.436;24.778;2023-06-14T02:28:42;6.03;;;2.83;;
40907;SDS011;51055;59.436;24.778;2023-06-14T02:31:10;7.00;;;3.05;;
40907;SDS011;51055;59.436;24.778;2023-06-14T02:33:38;7.70;;;3.10;;
40907;SDS011;51055;59.436;24.778;2023-06-14T02:36:06;7.80;;;3.40;;
40907;SDS011;51055;59.436;24.778;2023-06-14T02:38:33;7.72;;;3.20;;
40907;SDS011;51055;59.436;24.778;2023-06-14T02:41:01;7.03;;;3.22;;
40907;SDS011;51055;59.436;24.778;2023-06-14T02:43:29;10.13;;;3.08;;
40907;SDS011;51055;59.436;24.778;2023-06-14T02:45:57;5.75;;;2.58;;
40907;SDS011;51055;59.436;24.778;2023-06-14T02:48:25;5.30;;;2.50;;
40907;SDS011;51055;59.436;24.778;2023-06-14T02:50:53;8.00;;;2.80;;
40907;SDS011;51055;59.436;24.778;2023-06-14T02:53:20;6.95;;;2.55;;
40907;SDS011;51055;59.436;24.778;2023-06-14T02:55:48;5.00;;;2.90;;
40907;SDS011;51055;59.436;24.778;2023-06-14T02:58:16;5.70;;;2.53;;
40907;SDS011;51055;59.436;24.778;2023-06-14T03:00:45;5.85;;;2.65;;
40907;SDS011;51055;59.436;24.778;2023-06-14T03:03:13;5.93;;;2.78;;
40907;SDS011;51055;59.436;24.778;2023-06-14T03:05:44;6.82;;;2.70;;
40907;SDS011;51055;59.436;24.778;2023-06-14T03:08:17;7.20;;;2.75;;
40907;SDS011;51055;59.436;24.778;2023-06-14T03:10:46;4.93;;;2.65;;
40907;SDS011;51055;59.436;24.778;2023-06-14T03:13:14;5.28;;;2.60;;
40907;SDS011;51055;59.436;24.778;2023-06-14T03:15:43;4.97;;;2.45;;
40907;SDS011;51055;59.436;24.778;2023-06-14T03:18:12;5.47;;;2.67;;
40907;SDS011;51055;59.436;24.778;2023-06-14T03:20:39;6.47;;;2.60;;
40907;SDS011;51055;59.436;24.778;2023-06-14T03:23:08;5.60;;;2.80;;
40907;SDS011;51055;59.436;24.778;2023-06-14T03:25:36;6.97;;;2.97;;
40907;SDS011;51055;59.436;24.778;2023-06-14T03:28:05;6.30;;;2.70;;
40907;SDS011;51055;59.436;24.778;2023-06-14T03:30:33;6.20;;;2.83;;
40907;SDS011;51055;59.436;24.778;2023-06-14T03:33:03;4.93;;;2.35;;
40907;SDS011;51055;59.436;24.778;2023-06-14T03:35:32;6.05;;;2.65;;
40907;SDS011;51055;59.436;24.778;2023-06-14T03:38:00;7.95;;;2.97;;
40907;SDS011;51055;59.436;24.778;2023-06-14T03:40:27;8.02;;;2.70;;
40907;SDS011;51055;59.436;24.778;2023-06-14T03:42:55;6.65;;;2.58;;
40907;SDS011;51055;59.436;24.778;2023-06-14T03:45:22;6.30;;;2.50;;
40907;SDS011;51055;59.436;24.778;2023-06-14T03:47:50;8.13;;;2.75;;
40907;SDS011;51055;59.436;24.778;2023-06-14T03:50:19;4.85;;;2.50;;
40907;SDS011;51055;59.436;24.778;2023-06-14T03:52:48;5.70;;;2.47;;
40907;SDS011;51055;59.436;24.778;2023-06-14T03:55:16;6.15;;;2.83;;
40907;SDS011;51055;59.436;24.778;2023-06-14T03:57:46;6.82;;;2.60;;
40907;SDS011;51055;59.436;24.778;2023-06-14T04:00:14;6.10;;;2.42;;
40907;SDS011;51055;59.436;24.778;2023-06-14T04:02:42;8.20;;;2.80;;
40907;SDS011;51055;59.436;24.778;2023-06-14T04:05:11;4.60;;;2.22;;
40907;SDS011;51055;59.436;24.778;2023-06-14T04:07:39;3.90;;;2.28;;
40907;SDS011;51055;59.436;24.778;2023-06-14T04:10:07;4.68;;;2.15;;
40907;SDS011;51055;59.436;24.778;2023-06-14T04:12:35;3.73;;;1.83;;
40907;SDS011;51055;59.436;24.778;2023-06-14T04:15:03;3.92;;;1.90;;
40907;SDS011;51055;59.436;24.778;2023-06-14T04:17:45;4.80;;;2.15;;
40907;SDS011;51055;59.436;24.778;2023-06-14T04:20:13;5.40;;;2.65;;
40907;SDS011;51055;59.436;24.778;2023-06-14T04:22:41;5.00;;;2.13;;
40907;SDS011;51055;59.436;24.778;2023-06-14T04:25:10;3.90;;;2.00;;
40907;SDS011;51055;59.436;24.778;2023-06-14T04:27:39;5.38;;;2.22;;
40907;SDS011;51055;59.436;24.778;2023-06-14T04:30:07;3.80;;;1.92;;
40907;SDS011;51055;59.436;24.778;2023-06-14T04:32:35;4.50;;;1.90;;
40907;SDS011;51055;59.436;24.778;2023-06-14T04:35:06;7.22;;;2.20;;
40907;SDS011;51055;59.436;24.778;2023-06-14T04:37:35;4.20;;;2.00;;
40907;SDS011;51055;59.436;24.778;2023-06-14T04:40:07;5.72;;;2.30;;
40907;SDS011;51055;59.436;24.778;2023-06-14T04:42:38;4.78;;;1.95;;
40907;SDS011;51055;59.436;24.778;2023-06-14T04:45:08;4.97;;;2.25;;
40907;SDS011;51055;59.436;24.778;2023-06-14T04:47:36;5.10;;;2.05;;
40907;SDS011;51055;59.436;24.778;2023-06-14T04:50:05;5.00;;;1.98;;
40907;SDS011;51055;59.436;24.778;2023-06-14T04:52:32;4.07;;;2.08;;
40907;SDS011;51055;59.436;24.778;2023-06-14T04:55:00;6.10;;;2.42;;
40907;SDS011;51055;59.436;24.778;2023-06-14T04:57:29;4.75;;;2.20;;
40907;SDS011;51055;59.436;24.778;2023-06-14T04:59:56;7.65;;;2.40;;
40907;SDS011;51055;59.436;24.778;2023-06-14T05:02:25;5.35;;;2.35;;
40907;SDS011;51055;59.436;24.778;2023-06-14T05:04:53;5.47;;;2.15;;
40907;SDS011;51055;59.436;24.778;2023-06-14T05:09:51;5.03;;;2.20;;
40907;SDS011;51055;59.436;24.778;2023-06-14T05:12:19;4.20;;;2.08;;
40907;SDS011;51055;59.436;24.778;2023-06-14T05:14:46;7.00;;;2.25;;
40907;SDS011;51055;59.436;24.778;2023-06-14T05:17:14;5.57;;;2.40;;
40907;SDS011;51055;59.436;24.778;2023-06-14T05:19:44;7.10;;;2.15;;
40907;SDS011;51055;59.436;24.778;2023-06-14T05:22:11;7.90;;;2.47;;
40907;SDS011;51055;59.436;24.778;2023-06-14T05:24:39;5.85;;;2.30;;
40907;SDS011;51055;59.436;24.778;2023-06-14T05:27:07;4.50;;;2.15;;
40907;SDS011;51055;59.436;24.778;2023-06-14T05:29:35;9.20;;;2.50;;
40907;SDS011;51055;59.436;24.778;2023-06-14T05:32:03;9.38;;;2.90;;
40907;SDS011;51055;59.436;24.778;2023-06-14T05:34:31;5.82;;;2.80;;
40907;SDS011;51055;59.436;24.778;2023-06-14T05:36:59;7.28;;;2.80;;
40907;SDS011;51055;59.436;24.778;2023-06-14T05:39:27;6.53;;;2.95;;
40907;SDS011;51055;59.436;24.778;2023-06-14T05:41:55;11.77;;;3.83;;
40907;SDS011;51055;59.436;24.778;2023-06-14T05:44:23;8.23;;;3.10;;
40907;SDS011;51055;59.436;24.778;2023-06-14T05:46:51;9.10;;;3.08;;
40907;SDS011;51055;59.436;24.778;2023-06-14T05:49:18;7.70;;;2.88;;
40907;SDS011;51055;59.436;24.778;2023-06-14T05:51:46;6.93;;;2.70;;
40907;SDS011;51055;59.436;24.778;2023-06-14T05:54:14;8.98;;;2.85;;
40907;SDS011;51055;59.436;24.778;2023-06-14T05:56:41;7.15;;;3.08;;
40907;SDS011;51055;59.436;24.778;2023-06-14T05:59:09;7.18;;;3.08;;
40907;SDS011;51055;59.436;24.778;2023-06-14T06:01:36;6.70;;;3.00;;
40907;SDS011;51055;59.436;24.778;2023-06-14T06:04:04;5.68;;;2.90;;
40907;SDS011;51055;59.436;24.778;2023-06-14T06:06:32;7.30;;;2.53;;
40907;SDS011;51055;59.436;24.778;2023-06-14T06:09:00;5.63;;;3.05;;
40907;SDS011;51055;59.436;24.778;2023-06-14T06:11:27;7.40;;;3.30;;
40907;SDS011;51055;59.436;24.778;2023-06-14T06:14:10;7.03;;;2.80;;
40907;SDS011;51055;59.436;24.778;2023-06-14T06:16:38;5.68;;;3.22;;
40907;SDS011;51055;59.436;24.778;2023-06-14T06:19:06;6.75;;;3.05;;
40907;SDS011;51055;59.436;24.778;2023-06-14T06:21:34;6.40;;;3.13;;
40907;SDS011;51055;59.436;24.778;2023-06-14T06:24:01;8.23;;;3.25;;
40907;SDS011;51055;59.436;24.778;2023-06-14T06:26:32;6.25;;;3.00;;
40907;SDS011;51055;59.436;24.778;2023-06-14T06:29:00;5.30;;;3.10;;
40907;SDS011;51055;59.436;24.778;2023-06-14T06:31:28;7.47;;;2.53;;
40907;SDS011;51055;59.436;24.778;2023-06-14T06:33:56;8.75;;;2.60;;
40907;SDS011;51055;59.436;24.778;2023-06-14T06:36:24;6.88;;;2.72;;
40907;SDS011;51055;59.436;24.778;2023-06-14T06:38:52;4.97;;;2.35;;
40907;SDS011;51055;59.436;24.778;2023-06-14T06:41:20;7.35;;;2.95;;
40907;SDS011;51055;59.436;24.778;2023-06-14T06:43:47;11.90;;;3.13;;
40907;SDS011;51055;59.436;24.778;2023-06-14T06:46:15;8.73;;;2.88;;
40907;SDS011;51055;59.436;24.778;2023-06-14T06:48:45;5.95;;;2.42;;
40907;SDS011;51055;59.436;24.778;2023-06-14T06:51:13;5.05;;;2.45;;
40907;SDS011;51055;59.436;24.778;2023-06-14T06:53:42;6.35;;;3.30;;
40907;SDS011;51055;59.436;24.778;2023-06-14T06:56:16;5.97;;;2.40;;
40907;SDS011;51055;59.436;24.778;2023-06-14T06:58:44;7.63;;;2.40;;
40907;SDS011;51055;59.436;24.778;2023-06-14T07:01:11;5.33;;;2.03;;
40907;SDS011;51055;59.436;24.778;2023-06-14T07:03:40;8.02;;;2.13;;
40907;SDS011;51055;59.436;24.778;2023-06-14T07:06:08;5.47;;;2.08;;
40907;SDS011;51055;59.436;24.778;2023-06-14T07:08:36;5.47;;;1.98;;
40907;SDS011;51055;59.436;24.778;2023-06-14T07:11:06;5.15;;;1.90;;
40907;SDS011;51055;59.436;24.778;2023-06-14T07:13:34;6.85;;;2.10;;
40907;SDS011;51055;59.436;24.778;2023-06-14T07:16:01;4.90;;;1.90;;
40907;SDS011;51055;59.436;24.778;2023-06-14T07:18:31;5.15;;;2.10;;
40907;SDS011;51055;59.436;24.778;2023-06-14T07:20:59;5.90;;;2.20;;
40907;SDS011;51055;59.436;24.778;2023-06-14T07:23:27;4.30;;;2.05;;
40907;SDS011;51055;59.436;24.778;2023-06-14T07:25:55;4.07;;;1.88;;
40907;SDS011;51055;59.436;24.778;2023-06-14T07:28:22;5.40;;;1.98;;
40907;SDS011;51055;59.436;24.778;2023-06-14T07:30:50;4.13;;;1.60;;
40907;SDS011;51055;59.436;24.778;2023-06-14T07:33:17;5.07;;;2.20;;
40907;SDS011;51055;59.436;24.778;2023-06-14T07:35:45;4.68;;;1.95;;
40907;SDS011;51055;59.436;24.778;2023-06-14T07:38:13;7.40;;;3.50;;
40907;SDS011;51055;59.436;24.778;2023-06-14T07:40:41;5.03;;;2.60;;
40907;SDS011;51055;59.436;24.778;2023-06-14T07:43:08;6.72;;;2.53;;
40907;SDS011;51055;59.436;24.778;2023-06-14T07:45:36;5.47;;;2.35;;
40907;SDS011;51055;59.436;24.778;2023-06-14T07:48:05;6.60;;;2.47;;
40907;SDS011;51055;59.436;24.778;2023-06-14T07:50:33;5.25;;;2.05;;
40907;SDS011;51055;59.436;24.778;2023-06-14T07:53:00;3.60;;;1.60;;
40907;SDS011;51055;59.436;24.778;2023-06-14T07:55:28;6.88;;;1.70;;
40907;SDS011;51055;59.436;24.778;2023-06-14T07:58:08;8.63;;;1.98;;
40907;SDS011;51055;59.436;24.778;2023-06-14T08:00:36;6.95;;;2.00;;
40907;SDS011;51055;59.436;24.778;2023-06-14T08:03:03;6.40;;;2.20;;
40907;SDS011;51055;59.436;24.778;2023-06-14T08:05:31;5.68;;;2.17;;
40907;SDS011;51055;59.436;24.778;2023-06-14T08:07:58;6.22;;;2.28;;
40907;SDS011;51055;59.436;24.778;2023-06-14T08:10:26;6.60;;;2.35;;
40907;SDS011;51055;59.436;24.778;2023-06-14T08:12:54;6.07;;;2.60;;
40907;SDS011;51055;59.436;24.778;2023-06-14T08:15:21;6.25;;;3.05;;
40907;SDS011;51055;59.436;24.778;2023-06-14T08:17:49;5.57;;;2.88;;
40907;SDS011;51055;59.436;24.778;2023-06-14T08:20:17;6.57;;;2.63;;
40907;SDS011;51055;59.436;24.778;2023-06-14T08:22:45;5.47;;;2.20;;
40907;SDS011;51055;59.436;24.778;2023-06-14T08:25:15;6.18;;;2.50;;
40907;SDS011;51055;59.436;24.778;2023-06-14T08:27:43;5.90;;;2.40;;
40907;SDS011;51055;59.436;24.778;2023-06-14T08:30:12;3.47;;;2.10;;
40907;SDS011;51055;59.436;24.778;2023-06-14T08:32:40;5.38;;;2.30;;
40907;SDS011;51055;59.436;24.778;2023-06-14T08:35:08;6.00;;;2.80;;
40907;SDS011;51055;59.436;24.778;2023-06-14T08:37:39;4.97;;;2.47;;
40907;SDS011;51055;59.436;24.778;2023-06-14T08:42:52;5.25;;;2.72;;
40907;SDS011;51055;59.436;24.778;2023-06-14T08:45:22;6.90;;;3.30;;
40907;SDS011;51055;59.436;24.778;2023-06-14T08:47:53;6.30;;;3.20;;
40907;SDS011;51055;59.436;24.778;2023-06-14T08:50:26;5.30;;;3.05;;
40907;SDS011;51055;59.436;24.778;2023-06-14T08:53:00;6.22;;;3.63;;
40907;SDS011;51055;59.436;24.778;2023-06-14T08:55:31;5.90;;;2.63;;
40907;SDS011;51055;59.436;24.778;2023-06-14T08:58:09;7.03;;;2.70;;
40907;SDS011;51055;59.436;24.778;2023-06-14T09:00:42;6.82;;;2.50;;
40907;SDS011;51055;59.436;24.778;2023-06-14T09:03:10;4.53;;;1.90;;
40907;SDS011;51055;59.436;24.778;2023-06-14T09:05:41;4.43;;;2.30;;
40907;SDS011;51055;59.436;24.778;2023-06-14T09:08:08;4.30;;;2.20;;
40907;SDS011;51055;59.436;24.778;2023-06-14T09:10:37;5.20;;;2.40;;
40907;SDS011;51055;59.436;24.778;2023-06-14T09:13:05;5.35;;;2.70;;
40907;SDS011;51055;59.436;24.778;2023-06-14T09:18:03;5.75;;;2.80;;
40907;SDS011;51055;59.436;24.778;2023-06-14T09:20:31;4.28;;;2.00;;
40907;SDS011;51055;59.436;24.778;2023-06-14T09:23:00;5.30;;;2.28;;
40907;SDS011;51055;59.436;24.778;2023-06-14T09:28:06;7.65;;;2.33;;
40907;SDS011;51055;59.436;24.778;2023-06-14T09:30:38;8.93;;;3.47;;
40907;SDS011;51055;59.436;24.778;2023-06-14T09:33:06;7.97;;;3.05;;
40907;SDS011;51055;59.436;24.778;2023-06-14T09:35:34;4.50;;;2.58;;
40907;SDS011;51055;59.436;24.778;2023-06-14T09:38:03;4.60;;;2.13;;
40907;SDS011;51055;59.436;24.778;2023-06-14T09:40:33;4.15;;;2.17;;
40907;SDS011;51055;59.436;24.778;2023-06-14T09:43:06;4.82;;;2.90;;
40907;SDS011;51055;59.436;24.778;2023-06-14T09:45:40;7.30;;;2.30;;
40907;SDS011;51055;59.436;24.778;2023-06-14T09:48:08;4.72;;;2.20;;
40907;SDS011;51055;59.436;24.778;2023-06-14T09:50:37;4.00;;;2.20;;
40907;SDS011;51055;59.436;24.778;2023-06-14T09:53:07;4.53;;;1.90;;
40907;SDS011;51055;59.436;24.778;2023-06-14T09:55:37;5.50;;;1.92;;
40907;SDS011;51055;59.436;24.778;2023-06-14T09:58:08;5.30;;;2.33;;
40907;SDS011;51055;59.436;24.778;2023-06-14T10:00:37;4.68;;;1.98;;
40907;SDS011;51055;59.436;24.778;2023-06-14T10:03:13;5.32;;;2.17;;
40907;SDS011;51055;59.436;24.778;2023-06-14T10:05:43;4.38;;;2.08;;
40907;SDS011;51055;59.436;24.778;2023-06-14T10:08:15;4.97;;;1.92;;
40907;SDS011;51055;59.436;24.778;2023-06-14T10:10:45;8.27;;;2.35;;
40907;SDS011;51055;59.436;24.778;2023-06-14T10:13:13;4.70;;;1.52;;
40907;SDS011;51055;59.436;24.778;2023-06-14T10:16:27;5.47;;;1.88;;
40907;SDS011;51055;59.436;24.778;2023-06-14T10:19:17;3.63;;;1.58;;
40907;SDS011;51055;59.436;24.778;2023-06-14T10:24:45;5.03;;;2.00;;
40907;SDS011;51055;59.436;24.778;2023-06-14T10:27:15;5.35;;;2.40;;
40907;SDS011;51055;59.436;24.778;2023-06-14T10:32:23;5.38;;;2.10;;
40907;SDS011;51055;59.436;24.778;2023-06-14T10:34:56;3.50;;;1.70;;
40907;SDS011;51055;59.436;24.778;2023-06-14T10:37:28;5.20;;;2.10;;
40907;SDS011;51055;59.436;24.778;2023-06-14T10:39:56;4.57;;;2.00;;
40907;SDS011;51055;59.436;24.778;2023-06-14T10:42:27;6.77;;;1.97;;
40907;SDS011;51055;59.436;24.778;2023-06-14T10:45:01;6.22;;;2.20;;
40907;SDS011;51055;59.436;24.778;2023-06-14T10:47:30;3.70;;;2.10;;
40907;SDS011;51055;59.436;24.778;2023-06-14T10:50:03;4.78;;;2.30;;
40907;SDS011;51055;59.436;24.778;2023-06-14T10:52:39;3.58;;;1.83;;
40907;SDS011;51055;59.436;24.778;2023-06-14T10:55:13;5.15;;;1.90;;
40907;SDS011;51055;59.436;24.778;2023-06-14T10:57:49;4.30;;;1.80;;
40907;SDS011;51055;59.436;24.778;2023-06-14T11:00:22;6.07;;;2.00;;
40907;SDS011;51055;59.436;24.778;2023-06-14T11:08:27;3.55;;;1.88;;
40907;SDS011;51055;59.436;24.778;2023-06-14T11:11:15;5.07;;;2.10;;
40907;SDS011;51055;59.436;24.778;2023-06-14T11:13:45;4.13;;;1.80;;
40907;SDS011;51055;59.436;24.778;2023-06-14T11:16:15;4.03;;;1.98;;
40907;SDS011;51055;59.436;24.778;2023-06-14T11:18:46;4.20;;;1.85;;
40907;SDS011;51055;59.436;24.778;2023-06-14T11:21:17;3.90;;;1.85;;
40907;SDS011;51055;59.436;24.778;2023-06-14T11:23:49;4.07;;;2.15;;
40907;SDS011;51055;59.436;24.778;2023-06-14T11:26:27;7.85;;;2.00;;
40907;SDS011;51055;59.436;24.778;2023-06-14T11:28:59;4.78;;;1.73;;
40907;SDS011;51055;59.436;24.778;2023-06-14T11:31:27;5.35;;;1.70;;
40907;SDS011;51055;59.436;24.778;2023-06-14T11:33:57;5.28;;;1.80;;
40907;SDS011;51055;59.436;24.778;2023-06-14T11:36:26;4.20;;;1.90;;
40907;SDS011;51055;59.436;24.778;2023-06-14T11:39:04;6.93;;;1.80;;
40907;SDS011;51055;59.436;24.778;2023-06-14T11:44:09;5.40;;;1.80;;
40907;SDS011;51055;59.436;24.778;2023-06-14T11:46:37;5.93;;;1.77;;
40907;SDS011;51055;59.436;24.778;2023-06-14T11:49:06;5.20;;;2.35;;
40907;SDS011;51055;59.436;24.778;2023-06-14T11:51:36;5.70;;;2.67;;
40907;SDS011;51055;59.436;24.778;2023-06-14T11:54:05;3.80;;;1.90;;
40907;SDS011;51055;59.436;24.778;2023-06-14T11:56:34;6.15;;;2.00;;
40907;SDS011;51055;59.436;24.778;2023-06-14T11:59:03;8.00;;;2.63;;
40907;SDS011;51055;59.436;24.778;2023-06-14T12:01:35;6.13;;;1.90;;
40907;SDS011;51055;59.436;24.778;2023-06-14T12:04:05;4.88;;;2.10;;
40907;SDS011;51055;59.436;24.778;2023-06-14T12:06:33;4.93;;;2.08;;
40907;SDS011;51055;59.436;24.778;2023-06-14T12:09:04;3.55;;;2.03;;
40907;SDS011;51055;59.436;24.778;2023-06-14T12:11:40;5.13;;;2.53;;
40907;SDS011;51055;59.436;24.778;2023-06-14T12:14:08;5.10;;;2.30;;
40907;SDS011;51055;59.436;24.778;2023-06-14T12:16:39;5.90;;;2.00;;
40907;SDS011;51055;59.436;24.778;2023-06-14T12:19:11;4.05;;;2.00;;
40907;SDS011;51055;59.436;24.778;2023-06-14T12:21:43;5.43;;;2.30;;
40907;SDS011;51055;59.436;24.778;2023-06-14T12:24:16;6.15;;;2.08;;
40907;SDS011;51055;59.436;24.778;2023-06-14T12:26:44;4.07;;;1.80;;
40907;SDS011;51055;59.436;24.778;2023-06-14T12:29:12;4.33;;;2.20;;
40907;SDS011;51055;59.436;24.778;2023-06-14T12:31:40;4.95;;;2.20;;
40907;SDS011;51055;59.436;24.778;2023-06-14T12:36:37;4.93;;;2.20;;
40907;SDS011;51055;59.436;24.778;2023-06-14T12:39:12;4.55;;;2.38;;
40907;SDS011;51055;59.436;24.778;2023-06-14T12:41:40;4.90;;;1.87;;
40907;SDS011;51055;59.436;24.778;2023-06-14T12:44:11;3.85;;;1.88;;
40907;SDS011;51055;59.436;24.778;2023-06-14T12:49:09;4.85;;;2.10;;
40907;SDS011;51055;59.436;24.778;2023-06-14T12:51:39;5.10;;;2.42;;
40907;SDS011;51055;59.436;24.778;2023-06-14T12:56:34;4.22;;;2.40;;
40907;SDS011;51055;59.436;24.778;2023-06-14T12:59:02;5.80;;;2.33;;
40907;SDS011;51055;59.436;24.778;2023-06-14T13:01:30;5.15;;;2.53;;
40907;SDS011;51055;59.436;24.778;2023-06-14T13:03:58;7.53;;;2.83;;
40907;SDS011;51055;59.436;24.778;2023-06-14T13:06:26;4.03;;;2.28;;
40907;SDS011;51055;59.436;24.778;2023-06-14T13:08:53;5.32;;;2.30;;
40907;SDS011;51055;59.436;24.778;2023-06-14T13:11:24;4.93;;;2.60;;
40907;SDS011;51055;59.436;24.778;2023-06-14T13:13:53;5.55;;;2.63;;
40907;SDS011;51055;59.436;24.778;2023-06-14T13:16:20;5.30;;;2.50;;
40907;SDS011;51055;59.436;24.778;2023-06-14T13:18:48;4.57;;;2.60;;
40907;SDS011;51055;59.436;24.778;2023-06-14T13:21:16;5.13;;;2.70;;
40907;SDS011;51055;59.436;24.778;2023-06-14T13:23:43;5.97;;;2.80;;
40907;SDS011;51055;59.436;24.778;2023-06-14T13:26:11;6.03;;;2.57;;
40907;SDS011;51055;59.436;24.778;2023-06-14T13:28:39;6.65;;;3.20;;
40907;SDS011;51055;59.436;24.778;2023-06-14T13:31:07;5.93;;;2.72;;
40907;SDS011;51055;59.436;24.778;2023-06-14T13:33:34;4.82;;;3.05;;
40907;SDS011;51055;59.436;24.778;2023-06-14T13:36:02;5.53;;;2.90;;
40907;SDS011;51055;59.436;24.778;2023-06-14T13:38:30;4.83;;;3.00;;
40907;SDS011;51055;59.436;24.778;2023-06-14T13:40:57;5.85;;;3.45;;
40907;SDS011;51055;59.436;24.778;2023-06-14T13:43:25;7.10;;;3.40;;
40907;SDS011;51055;59.436;24.778;2023-06-14T13:46:55;8.05;;;3.10;;
40907;SDS011;51055;59.436;24.778;2023-06-14T13:49:24;4.90;;;2.42;;
40907;SDS011;51055;59.436;24.778;2023-06-14T13:51:51;5.07;;;3.08;;
40907;SDS011;51055;59.436;24.778;2023-06-14T13:54:19;5.35;;;2.63;;
40907;SDS011;51055;59.436;24.778;2023-06-14T13:56:48;5.65;;;2.92;;
40907;SDS011;51055;59.436;24.778;2023-06-14T13:59:16;6.00;;;3.08;;
40907;SDS011;51055;59.436;24.778;2023-06-14T14:01:43;4.97;;;2.97;;
40907;SDS011;51055;59.436;24.778;2023-06-14T14:04:11;4.82;;;2.72;;
40907;SDS011;51055;59.436;24.778;2023-06-14T14:06:39;6.00;;;3.38;;
40907;SDS011;51055;59.436;24.778;2023-06-14T14:09:07;6.80;;;2.90;;
40907;SDS011;51055;59.436;24.778;2023-06-14T14:11:35;5.05;;;2.65;;
40907;SDS011;51055;59.436;24.778;2023-06-14T14:14:03;7.47;;;3.03;;
40907;SDS011;51055;59.436;24.778;2023-06-14T14:16:32;6.22;;;2.90;;
40907;SDS011;51055;59.436;24.778;2023-06-14T14:19:00;5.55;;;3.33;;
40907;SDS011;51055;59.436;24.778;2023-06-14T14:21:29;5.45;;;2.92;;
40907;SDS011;51055;59.436;24.778;2023-06-14T14:23:57;6.28;;;2.97;;
40907;SDS011;51055;59.436;24.778;2023-06-14T14:26:25;6.07;;;2.92;;
40907;SDS011;51055;59.436;24.778;2023-06-14T14:28:53;4.95;;;2.72;;
40907;SDS011;51055;59.436;24.778;2023-06-14T14:31:20;5.75;;;3.40;;
40907;SDS011;51055;59.436;24.778;2023-06-14T14:33:48;5.75;;;3.40;;
40907;SDS011;51055;59.436;24.778;2023-06-14T14:36:15;5.97;;;3.42;;
40907;SDS011;51055;59.436;24.778;2023-06-14T14:38:43;8.13;;;4.68;;
40907;SDS011;51055;59.436;24.778;2023-06-14T14:41:10;9.32;;;4.80;;
40907;SDS011;51055;59.436;24.778;2023-06-14T14:43:38;14.18;;;5.25;;
40907;SDS011;51055;59.436;24.778;2023-06-14T14:46:06;7.57;;;4.07;;
40907;SDS011;51055;59.436;24.778;2023-06-14T14:48:33;8.32;;;4.43;;
40907;SDS011;51055;59.436;24.778;2023-06-14T14:51:01;6.60;;;3.95;;
40907;SDS011;51055;59.436;24.778;2023-06-14T14:53:29;5.80;;;3.83;;
40907;SDS011;51055;59.436;24.778;2023-06-14T14:55:57;6.38;;;4.00;;
40907;SDS011;51055;59.436;24.778;2023-06-14T14:58:24;6.93;;;3.60;;
40907;SDS011;51055;59.436;24.778;2023-06-14T15:00:52;8.43;;;3.90;;
40907;SDS011;51055;59.436;24.778;2023-06-14T15:03:20;5.78;;;3.35;;
40907;SDS011;51055;59.436;24.778;2023-06-14T15:05:48;6.90;;;3.75;;
40907;SDS011;51055;59.436;24.778;2023-06-14T15:08:15;6.15;;;3.63;;
40907;SDS011;51055;59.436;24.778;2023-06-14T15:10:43;6.47;;;3.15;;
40907;SDS011;51055;59.436;24.778;2023-06-14T15:13:11;5.30;;;3.30;;
40907;SDS011;51055;59.436;24.778;2023-06-14T15:15:38;5.63;;;3.08;;
40907;SDS011;51055;59.436;24.778;2023-06-14T15:18:06;5.18;;;3.00;;
40907;SDS011;51055;59.436;24.778;2023-06-14T15:20:33;5.47;;;2.90;;
40907;SDS011;51055;59.436;24.778;2023-06-14T15:23:01;5.47;;;3.13;;